createdAt,value
2018-05-12T00:01:02.811Z,13.13
2018-05-12T00:03:32.613Z,13.07
2018-05-12T00:06:03.383Z,13.03
2018-05-12T00:08:33.182Z,12.98
2018-05-12T00:11:03.175Z,13.67
2018-05-12T00:13:32.007Z,13.15
2018-05-12T00:16:00.962Z,13.05
2018-05-12T00:18:29.544Z,12.98
2018-05-12T00:20:58.157Z,12.91
2018-05-12T00:23:26.796Z,12.85
2018-05-12T00:25:55.395Z,12.77
2018-05-12T00:28:27.991Z,12.71
2018-05-12T00:30:56.663Z,12.64
2018-05-12T00:33:25.866Z,12.58
2018-05-12T00:35:56.483Z,12.55
2018-05-12T00:38:25.119Z,12.51
2018-05-12T00:40:53.900Z,12.45
2018-05-12T00:43:23.708Z,12.38
2018-05-12T00:45:52.316Z,12.32
2018-05-12T00:48:21.904Z,12.29
2018-05-12T00:50:50.504Z,12.27
2018-05-12T00:53:19.146Z,12.98
2018-05-12T00:55:47.884Z,12.50
2018-05-12T00:58:16.546Z,12.38
2018-05-12T01:00:45.082Z,12.29
2018-05-12T01:03:13.717Z,12.22
2018-05-12T01:05:42.315Z,12.12
2018-05-12T01:08:10.947Z,12.78
2018-05-12T01:10:39.542Z,12.24
2018-05-12T01:13:08.176Z,12.13
2018-05-12T01:15:36.974Z,12.06
2018-05-12T01:18:05.682Z,12.78
2018-05-12T01:20:34.281Z,12.23
2018-05-12T01:23:03.125Z,12.12
2018-05-12T01:25:31.733Z,12.06
2018-05-12T01:28:00.722Z,11.99
2018-05-12T01:30:29.318Z,11.94
2018-05-12T01:32:57.951Z,11.93
2018-05-12T01:35:26.557Z,11.92
2018-05-12T01:37:55.197Z,11.90
2018-05-12T01:40:23.800Z,11.90
2018-05-12T01:42:52.441Z,11.88
2018-05-12T01:45:21.043Z,12.59
2018-05-12T01:47:49.653Z,12.11
2018-05-12T01:50:18.296Z,12.01
2018-05-12T01:52:49.153Z,12.68
2018-05-12T01:55:17.870Z,12.17
2018-05-12T01:57:46.473Z,12.03
2018-05-12T02:00:17.925Z,11.94
2018-05-12T02:02:46.523Z,11.89
2018-05-12T02:05:15.199Z,11.84
2018-05-12T02:07:43.798Z,11.80
2018-05-12T02:10:12.435Z,11.75
2018-05-12T02:12:41.032Z,11.68
2018-05-12T02:15:09.663Z,11.59
2018-05-12T02:17:38.263Z,11.56
2018-05-12T02:20:06.902Z,11.52
2018-05-12T02:22:35.503Z,11.50
2018-05-12T02:25:04.142Z,11.48
2018-05-12T02:27:32.758Z,11.47
2018-05-12T02:30:01.403Z,11.47
2018-05-12T02:32:30.005Z,11.48
2018-05-12T02:34:58.646Z,11.47
2018-05-12T02:37:27.267Z,11.42
2018-05-12T02:39:55.889Z,11.40
2018-05-12T02:42:24.502Z,12.14
2018-05-12T02:44:53.162Z,11.63
2018-05-12T02:47:34.696Z,11.54
2018-05-12T02:50:03.654Z,11.46
2018-05-12T02:52:32.247Z,11.41
2018-05-12T02:55:01.182Z,11.37
2018-05-12T02:57:29.780Z,11.29
2018-05-12T02:59:58.421Z,11.23
2018-05-12T03:02:27.048Z,11.14
2018-05-12T03:04:55.667Z,11.11
2018-05-12T03:07:24.263Z,11.12
2018-05-12T03:09:52.896Z,11.16
2018-05-12T03:12:21.509Z,11.21
2018-05-12T03:14:50.144Z,11.27
2018-05-12T03:17:18.759Z,11.31
2018-05-12T03:19:47.389Z,11.35
2018-05-12T03:22:15.991Z,12.14
2018-05-12T03:24:46.364Z,11.65
2018-05-12T03:27:14.958Z,11.56
2018-05-12T03:29:43.588Z,11.54
2018-05-12T03:32:13.998Z,11.55
2018-05-12T03:34:47.915Z,12.32
2018-05-12T03:37:16.804Z,11.85
2018-05-12T03:39:45.404Z,11.79
2018-05-12T03:42:14.049Z,11.76
2018-05-12T03:44:42.660Z,12.53
2018-05-12T03:47:11.347Z,12.07
2018-05-12T03:49:39.956Z,12.81
2018-05-12T03:52:08.635Z,12.32
2018-05-12T03:54:38.530Z,12.21
2018-05-12T03:57:09.103Z,12.90
2018-05-12T03:59:37.695Z,13.05
2018-05-12T04:02:06.351Z,12.43
2018-05-12T04:05:11.785Z,12.29
2018-05-12T04:08:17.270Z,12.19
2018-05-12T04:11:22.961Z,13.01
2018-05-12T04:13:51.577Z,12.38
2018-05-12T04:16:21.646Z,12.31
2018-05-12T04:18:50.320Z,13.07
2018-05-12T04:21:19.844Z,12.52
2018-05-12T04:23:48.389Z,12.43
2018-05-12T04:26:17.029Z,12.35
2018-05-12T04:28:45.633Z,12.36
2018-05-12T04:31:14.271Z,12.40
2018-05-12T04:33:42.874Z,12.45
2018-05-12T04:36:11.472Z,12.52
2018-05-12T04:38:40.106Z,12.61
2018-05-12T04:41:08.704Z,12.71
2018-05-12T04:43:37.448Z,12.78
2018-05-12T04:46:06.071Z,12.82
2018-05-12T04:48:34.704Z,13.68
2018-05-12T04:51:06.049Z,13.14
2018-05-12T04:53:35.248Z,13.06
2018-05-12T04:56:07.465Z,13.09
2018-05-12T04:58:55.009Z,13.14
2018-05-12T05:01:26.380Z,13.16
2018-05-12T05:03:57.453Z,13.23
2018-05-12T05:06:32.063Z,13.27
2018-05-12T05:11:58.794Z,13.36
2018-05-12T05:14:30.868Z,13.47
2018-05-12T05:17:02.721Z,13.51
2018-05-12T05:19:40.027Z,13.59
2018-05-12T05:22:14.692Z,13.72
2018-05-12T05:24:45.714Z,13.86
2018-05-12T05:27:14.355Z,13.91
2018-05-12T05:29:42.957Z,14.83
2018-05-12T05:32:11.555Z,14.24
2018-05-12T05:34:40.187Z,14.23
2018-05-12T05:37:08.791Z,14.18
2018-05-12T05:39:37.423Z,14.21
2018-05-12T05:42:06.132Z,14.21
2018-05-12T05:44:34.859Z,15.16
2018-05-12T05:47:03.469Z,14.57
2018-05-12T05:49:32.099Z,14.53
2018-05-12T05:52:00.705Z,14.68
2018-05-12T05:54:42.625Z,14.76
2018-05-12T05:57:14.110Z,14.94
2018-05-12T05:59:42.741Z,15.02
2018-05-12T06:02:11.340Z,15.18
2018-05-12T06:04:39.969Z,15.22
2018-05-12T06:07:08.607Z,15.33
2018-05-12T06:09:37.230Z,15.43
2018-05-12T06:12:05.832Z,15.52
2018-05-12T06:14:34.531Z,15.62
2018-05-12T06:17:03.143Z,15.68
2018-05-12T06:19:32.510Z,15.74
2018-05-12T06:22:03.260Z,15.78
2018-05-12T06:24:31.903Z,15.83
2018-05-12T06:27:01.943Z,15.89
2018-05-12T06:29:31.023Z,16.02
2018-05-12T06:32:05.395Z,16.20
2018-05-12T06:34:36.573Z,17.35
2018-05-12T06:37:05.236Z,16.82
2018-05-12T06:39:34.482Z,16.86
2018-05-12T06:42:04.780Z,16.94
2018-05-12T06:44:33.412Z,18.08
2018-05-12T06:47:02.305Z,17.56
2018-05-12T06:49:30.938Z,17.57
2018-05-12T06:51:59.540Z,17.68
2018-05-12T06:54:28.205Z,17.82
2018-05-12T06:56:56.811Z,19.02
2018-05-12T06:59:25.477Z,18.30
2018-05-12T07:01:55.075Z,19.31
2018-05-12T07:04:24.950Z,18.57
2018-05-12T07:06:54.006Z,18.49
2018-05-12T07:09:22.655Z,18.50
2018-05-12T07:11:51.263Z,19.60
2018-05-12T07:14:19.867Z,18.84
2018-05-12T07:16:48.500Z,18.75
2018-05-12T07:19:17.115Z,19.93
2018-05-12T07:21:45.904Z,19.17
2018-05-12T07:24:14.513Z,19.08
2018-05-12T07:26:43.149Z,19.16
2018-05-12T07:29:12.097Z,20.36
2018-05-12T07:31:42.083Z,19.55
2018-05-12T07:34:10.700Z,19.48
2018-05-12T07:36:39.395Z,19.34
2018-05-12T07:39:08.156Z,19.60
2018-05-12T07:41:36.891Z,19.87
2018-05-12T07:44:08.071Z,20.19
2018-05-12T07:49:24.334Z,20.44
2018-05-12T07:51:53.405Z,20.44
2018-05-12T07:54:22.259Z,20.55
2018-05-12T07:56:51.066Z,20.69
2018-05-12T07:59:20.008Z,20.38
2018-05-12T08:01:49.481Z,21.81
2018-05-12T08:04:18.219Z,21.07
2018-05-12T08:06:48.721Z,22.49
2018-05-12T08:09:17.452Z,21.97
2018-05-12T08:11:46.410Z,21.86
2018-05-12T08:14:15.502Z,21.78
2018-05-12T08:16:44.195Z,23.20
2018-05-12T08:19:13.003Z,22.19
2018-05-12T08:21:41.754Z,23.37
2018-05-12T08:24:10.380Z,22.28
2018-05-12T08:26:39.162Z,22.11
2018-05-12T08:29:07.748Z,21.98
2018-05-12T08:31:36.409Z,22.18
2018-05-12T08:34:04.992Z,22.35
2018-05-12T08:36:34.936Z,22.59
2018-05-12T08:39:03.539Z,22.72
2018-05-12T08:41:32.172Z,22.94
2018-05-12T08:44:00.795Z,22.94
2018-05-12T08:46:29.425Z,22.96
2018-05-12T08:48:58.036Z,23.00
2018-05-12T08:51:26.671Z,23.21
2018-05-12T08:53:55.734Z,23.37
2018-05-12T08:56:24.380Z,25.13
2018-05-12T08:58:52.994Z,24.20
2018-05-12T09:01:21.683Z,24.04
2018-05-12T09:03:50.553Z,24.12
2018-05-12T09:06:19.187Z,24.16
2018-05-12T09:08:47.792Z,24.07
2018-05-12T09:11:16.423Z,24.32
2018-05-12T09:13:45.244Z,24.59
2018-05-12T09:16:13.881Z,25.02
2018-05-12T09:18:45.984Z,25.28
2018-05-12T09:21:14.584Z,25.54
2018-05-12T09:23:44.827Z,25.75
2018-05-12T09:26:13.417Z,27.11
2018-05-12T09:28:42.081Z,25.63
2018-05-12T09:31:10.751Z,25.01
2018-05-12T09:33:40.222Z,26.23
2018-05-12T09:36:09.159Z,25.12
2018-05-12T09:38:37.833Z,24.83
2018-05-12T09:41:11.427Z,24.79
2018-05-12T09:43:40.136Z,24.83
2018-05-12T09:46:08.768Z,24.64
2018-05-12T09:48:37.429Z,25.96
2018-05-12T09:51:06.065Z,24.90
2018-05-12T09:53:35.917Z,24.86
2018-05-12T09:56:04.734Z,24.70
2018-05-12T09:58:33.404Z,25.98
2018-05-12T10:01:02.041Z,25.19
2018-05-12T10:03:30.849Z,25.15
2018-05-12T10:05:59.412Z,25.16
2018-05-12T10:08:31.308Z,25.10
2018-05-12T10:11:00.218Z,25.02
2018-05-12T10:13:29.341Z,25.01
2018-05-12T10:15:57.889Z,25.38
2018-05-12T10:18:26.647Z,25.65
2018-05-12T10:21:00.688Z,25.77
2018-05-12T10:23:29.324Z,25.77
2018-05-12T10:25:58.172Z,25.56
2018-05-12T10:28:26.811Z,25.43
2018-05-12T10:30:55.407Z,25.56
2018-05-12T10:33:24.625Z,25.69
2018-05-12T10:35:53.247Z,25.84
2018-05-12T10:38:21.892Z,27.44
2018-05-12T10:40:50.492Z,26.55
2018-05-12T10:43:19.121Z,28.08
2018-05-12T10:45:49.727Z,27.12
2018-05-12T10:48:18.392Z,27.01
2018-05-12T10:50:47.136Z,26.99
2018-05-12T10:53:15.772Z,27.17
2018-05-12T10:55:44.379Z,27.27
2018-05-12T10:58:13.024Z,27.64
2018-05-12T11:00:41.620Z,27.86
2018-05-12T11:03:10.292Z,28.12
2018-05-12T11:05:38.896Z,28.22
2018-05-12T11:08:07.507Z,29.74
2018-05-12T11:10:36.145Z,28.66
2018-05-12T11:13:04.748Z,28.39
2018-05-12T11:15:33.388Z,29.87
2018-05-12T11:18:02.000Z,28.59
2018-05-12T11:20:30.645Z,28.34
2018-05-12T11:23:00.179Z,28.18
2018-05-12T11:25:28.816Z,28.22
2018-05-12T11:27:57.420Z,28.25
2018-05-12T11:30:26.054Z,28.17
2018-05-12T11:32:54.655Z,27.97
2018-05-12T11:35:24.639Z,27.87
2018-05-12T11:37:53.242Z,27.81
2018-05-12T11:40:21.874Z,27.71
2018-05-12T11:42:50.474Z,27.70
2018-05-12T11:45:19.113Z,27.78
2018-05-12T11:47:50.507Z,27.84
2018-05-12T11:50:19.763Z,27.85
2018-05-12T11:52:48.364Z,27.97
2018-05-12T11:55:17.013Z,28.10
2018-05-12T11:57:45.616Z,28.11
2018-05-12T12:00:14.253Z,28.00
2018-05-12T12:02:42.853Z,27.87
2018-05-12T12:05:11.499Z,27.88
2018-05-12T12:07:40.091Z,29.34
2018-05-12T12:10:10.859Z,28.24
2018-05-12T12:12:39.470Z,28.11
2018-05-12T12:15:08.102Z,29.47
2018-05-12T12:17:36.716Z,28.55
2018-05-12T12:20:05.408Z,28.34
2018-05-12T12:22:34.032Z,28.00
2018-05-12T12:25:02.672Z,27.79
2018-05-12T12:27:31.325Z,27.83
2018-05-12T12:29:59.967Z,27.87
2018-05-12T12:32:28.582Z,27.82
2018-05-12T12:34:57.211Z,27.82
2018-05-12T12:37:25.813Z,28.01
2018-05-12T12:39:54.443Z,28.10
2018-05-12T12:42:23.056Z,28.06
2018-05-12T12:44:51.697Z,28.10
2018-05-12T12:47:20.332Z,28.05
2018-05-12T12:49:49.231Z,28.06
2018-05-12T12:52:18.074Z,29.43
2018-05-12T12:54:46.952Z,28.57
2018-05-12T12:57:16.181Z,28.46
2018-05-12T12:59:47.891Z,28.59
2018-05-12T13:02:16.686Z,28.74
2018-05-12T13:04:45.748Z,28.86
2018-05-12T13:07:14.904Z,30.10
2018-05-12T13:09:43.957Z,29.10
2018-05-12T13:12:13.106Z,28.93
2018-05-12T13:14:42.128Z,28.83
2018-05-12T13:17:11.169Z,28.85
2018-05-12T13:19:40.370Z,30.20
2018-05-12T13:22:09.033Z,29.15
2018-05-12T13:24:37.837Z,29.03
2018-05-12T13:27:13.659Z,28.96
2018-05-12T13:29:48.713Z,29.08
2018-05-12T13:32:17.266Z,29.19
2018-05-12T13:34:45.847Z,29.30
2018-05-12T13:37:14.484Z,29.32
2018-05-12T13:39:43.083Z,30.71
2018-05-12T13:42:11.715Z,29.95
2018-05-12T13:44:41.308Z,29.86
2018-05-12T13:47:09.939Z,30.01
2018-05-12T13:49:38.536Z,30.01
2018-05-12T13:52:07.167Z,30.23
2018-05-12T13:54:35.767Z,30.36
2018-05-12T13:57:04.404Z,30.44
2018-05-12T13:59:33.916Z,30.60
2018-05-12T14:02:02.549Z,30.59
2018-05-12T14:04:31.512Z,30.58
2018-05-12T14:07:00.144Z,30.62
2018-05-12T14:09:28.748Z,30.73
2018-05-12T14:11:58.157Z,30.77
2018-05-12T14:14:26.993Z,30.72
2018-05-12T14:16:56.319Z,31.95
2018-05-12T14:19:26.879Z,31.07
2018-05-12T14:21:55.515Z,30.97
2018-05-12T14:24:24.116Z,31.00
2018-05-12T14:26:52.865Z,30.88
2018-05-12T14:29:21.467Z,31.00
2018-05-12T14:31:50.069Z,30.92
2018-05-12T14:34:20.764Z,30.62
2018-05-12T14:36:49.365Z,30.74
2018-05-12T14:39:18.023Z,30.76
2018-05-12T14:41:46.629Z,30.90
2018-05-12T14:44:15.547Z,32.14
2018-05-12T14:46:44.500Z,31.16
2018-05-12T14:49:13.398Z,31.00
2018-05-12T14:51:52.115Z,31.03
2018-05-12T14:54:21.845Z,31.20
2018-05-12T14:56:50.617Z,32.74
2018-05-12T14:59:19.330Z,33.46
2018-05-12T15:01:48.068Z,33.08
2018-05-12T15:04:16.927Z,33.18
2018-05-12T15:06:45.805Z,33.49
2018-05-12T15:09:14.417Z,33.59
2018-05-12T15:11:45.337Z,33.78
2018-05-12T15:14:14.357Z,34.01
2018-05-12T15:16:42.974Z,34.11
2018-05-12T15:19:11.671Z,34.35
2018-05-12T15:21:40.275Z,34.53
2018-05-12T15:24:09.200Z,34.57
2018-05-12T15:26:47.288Z,34.62
2018-05-12T15:29:16.233Z,34.69
2018-05-12T15:31:45.298Z,34.88
2018-05-12T15:34:15.185Z,36.40
2018-05-12T15:36:44.851Z,35.59
2018-05-12T15:39:15.477Z,36.75
2018-05-12T15:41:44.960Z,35.86
2018-05-12T15:44:13.997Z,35.68
2018-05-12T15:46:42.592Z,35.47
2018-05-12T15:49:11.755Z,35.55
2018-05-12T15:51:40.700Z,35.47
2018-05-12T15:54:09.729Z,36.81
2018-05-12T15:56:42.914Z,35.70
2018-05-12T15:59:20.941Z,35.36
2018-05-12T16:01:49.560Z,35.36
2018-05-12T16:04:18.190Z,35.26
2018-05-12T16:06:47.819Z,35.07
2018-05-12T16:09:20.444Z,34.90
2018-05-12T16:11:51.517Z,34.70
2018-05-12T16:14:20.153Z,34.60
2018-05-12T16:16:49.696Z,34.71
2018-05-12T16:19:18.340Z,34.72
2018-05-12T16:21:46.946Z,36.31
2018-05-12T16:24:16.214Z,35.21
2018-05-12T16:26:44.821Z,35.14
2018-05-12T16:29:13.955Z,35.20
2018-05-12T16:31:42.573Z,35.16
2018-05-12T16:34:11.201Z,35.01
2018-05-12T16:36:39.804Z,35.06
2018-05-12T16:39:15.733Z,35.07
2018-05-12T16:41:48.139Z,34.94
2018-05-12T16:44:16.776Z,34.85
2018-05-12T16:46:48.173Z,34.86
2018-05-12T16:49:16.774Z,34.76
2018-05-12T16:51:45.398Z,34.74
2018-05-12T16:54:15.060Z,36.36
2018-05-12T16:56:43.692Z,35.18
2018-05-12T16:59:12.332Z,35.19
2018-05-12T17:01:40.924Z,35.17
2018-05-12T17:04:09.897Z,35.08
2018-05-12T17:06:41.655Z,35.09
2018-05-12T17:09:19.048Z,35.04
2018-05-12T17:11:47.683Z,34.92
2018-05-12T17:14:16.284Z,34.82
2018-05-12T17:16:44.920Z,34.78
2018-05-12T17:19:15.573Z,34.65
2018-05-12T17:21:44.197Z,34.41
2018-05-12T17:24:12.796Z,34.38
2018-05-12T17:26:41.511Z,34.35
2018-05-12T17:29:11.614Z,34.22
2018-05-12T17:31:44.993Z,34.04
2018-05-12T17:34:15.932Z,33.89
2018-05-12T17:36:46.574Z,33.68
2018-05-12T17:39:15.197Z,33.57
2018-05-12T17:41:43.832Z,33.52
2018-05-12T17:44:12.520Z,33.41
2018-05-12T17:46:41.071Z,32.98
2018-05-12T17:49:09.676Z,31.95
2018-05-12T17:51:38.313Z,31.22
2018-05-12T17:54:06.915Z,30.18
2018-05-12T17:56:37.704Z,29.43
2018-05-12T17:59:06.308Z,28.82
2018-05-12T18:01:36.108Z,28.29
2018-05-12T18:04:04.759Z,27.80
2018-05-12T18:06:35.524Z,28.70
2018-05-12T18:09:08.031Z,27.03
2018-05-12T18:11:37.832Z,26.32
2018-05-12T18:14:06.332Z,25.76
2018-05-12T18:16:34.971Z,25.32
2018-05-12T18:19:03.932Z,24.86
2018-05-12T18:21:32.520Z,24.38
2018-05-12T18:24:03.207Z,25.33
2018-05-12T18:26:31.838Z,24.04
2018-05-12T18:29:00.440Z,23.59
2018-05-12T18:31:29.987Z,23.20
2018-05-12T18:33:58.584Z,22.88
2018-05-12T18:36:27.268Z,23.91
2018-05-12T18:38:55.887Z,22.80
2018-05-12T18:41:26.016Z,22.44
2018-05-12T18:43:56.769Z,22.23
2018-05-12T18:46:25.369Z,22.02
2018-05-12T18:48:57.108Z,21.81
2018-05-12T18:51:29.625Z,22.69
2018-05-12T18:53:58.264Z,21.82
2018-05-12T18:56:26.870Z,21.55
2018-05-12T18:58:55.495Z,21.35
2018-05-12T19:01:24.154Z,21.20
2018-05-12T19:03:52.790Z,21.03
2018-05-12T19:06:21.398Z,20.91
2018-05-12T19:08:51.117Z,20.78
2018-05-12T19:11:20.057Z,20.66
2018-05-12T19:13:48.700Z,21.56
2018-05-12T19:16:17.880Z,20.83
2018-05-12T19:18:49.849Z,21.58
2018-05-12T19:21:21.713Z,21.65
2018-05-12T19:23:54.415Z,20.77
2018-05-12T19:26:25.044Z,21.39
2018-05-12T19:28:54.519Z,21.28
2018-05-12T19:31:24.944Z,20.39
2018-05-12T19:34:03.442Z,20.98
2018-05-12T19:36:34.635Z,21.05
2018-05-12T19:39:04.683Z,20.98
2018-05-12T19:41:33.421Z,20.12
2018-05-12T19:44:02.095Z,19.79
2018-05-12T19:46:31.043Z,20.52
2018-05-12T19:49:00.697Z,19.73
2018-05-12T19:51:37.175Z,19.47
2018-05-12T19:54:08.176Z,19.31
2018-05-12T19:56:46.031Z,19.23
2018-05-12T19:59:15.412Z,19.15
2018-05-12T20:01:44.017Z,19.13
2018-05-12T20:04:12.651Z,19.06
2018-05-12T20:06:44.253Z,19.85
2018-05-12T20:09:13.050Z,19.24
2018-05-12T20:11:43.248Z,19.11
2018-05-12T20:14:14.121Z,19.04
2018-05-12T20:16:45.035Z,19.00
2018-05-12T20:19:20.709Z,18.99
2018-05-12T20:21:52.333Z,18.93
2018-05-12T20:24:22.681Z,18.92
2018-05-12T20:26:51.327Z,18.98
2018-05-12T20:29:23.051Z,18.98
2018-05-12T20:31:52.523Z,19.00
2018-05-12T20:34:21.918Z,19.01
2018-05-12T20:36:50.965Z,19.00
2018-05-12T20:39:20.539Z,18.95
2018-05-12T20:41:49.943Z,18.93
2018-05-12T20:44:19.009Z,19.69
2018-05-12T20:46:48.223Z,19.16
2018-05-12T20:49:17.256Z,19.75
2018-05-12T20:51:46.621Z,19.16
2018-05-12T20:54:16.068Z,19.02
2018-05-12T20:56:45.770Z,19.68
2018-05-12T20:59:15.341Z,19.05
2018-05-12T21:01:44.588Z,18.84
2018-05-12T21:04:13.142Z,18.64
2018-05-12T21:06:42.065Z,18.47
2018-05-12T21:09:12.135Z,18.32
2018-05-12T21:11:41.030Z,18.14
2018-05-12T21:14:09.867Z,18.02
2018-05-12T21:16:40.672Z,17.92
2018-05-12T21:19:12.006Z,17.86
2018-05-12T21:21:42.542Z,17.84
2018-05-12T21:24:13.597Z,17.76
2018-05-12T21:26:43.057Z,17.66
2018-05-12T21:29:12.041Z,17.59
2018-05-12T21:31:41.343Z,17.50
2018-05-12T21:34:10.009Z,17.44
2018-05-12T21:36:39.326Z,17.39
2018-05-12T21:39:08.157Z,17.34
2018-05-12T21:41:36.790Z,17.29
2018-05-12T21:44:05.719Z,17.22
2018-05-12T21:46:34.352Z,17.18
2018-05-12T21:49:02.957Z,17.99
2018-05-12T21:51:34.578Z,17.49
2018-05-12T21:54:03.182Z,17.47
2018-05-12T21:56:31.812Z,17.44
2018-05-12T21:59:01.362Z,17.42
2018-05-12T22:01:30.203Z,18.16
2018-05-12T22:03:59.270Z,17.64
2018-05-12T22:06:29.526Z,17.55
2018-05-12T22:08:58.653Z,18.24
2018-05-12T22:11:27.433Z,17.67
2018-05-12T22:13:56.679Z,17.50
2018-05-12T22:16:25.592Z,17.45
2018-05-12T22:18:54.594Z,17.37
2018-05-12T22:21:23.644Z,17.35
2018-05-12T22:23:52.307Z,17.35
2018-05-12T22:26:21.534Z,17.35
2018-05-12T22:28:50.901Z,18.09
2018-05-12T22:31:20.183Z,17.59
2018-05-12T22:33:49.685Z,17.50
2018-05-12T22:36:18.574Z,18.18
2018-05-12T22:38:48.688Z,17.65
2018-05-12T22:41:17.314Z,17.52
2018-05-12T22:43:46.169Z,17.45
2018-05-12T22:46:14.800Z,17.41
2018-05-12T22:48:43.402Z,18.10
2018-05-12T22:51:12.033Z,17.60
2018-05-12T22:53:40.635Z,17.49
2018-05-12T22:56:09.642Z,17.42
2018-05-12T22:58:38.592Z,17.35
2018-05-12T23:01:07.189Z,17.31
2018-05-12T23:03:35.851Z,17.26
2018-05-12T23:06:04.452Z,17.20
2018-05-12T23:08:33.343Z,17.16
2018-05-12T23:11:02.506Z,17.84
2018-05-12T23:13:31.499Z,17.31
2018-05-12T23:16:00.499Z,17.19
2018-05-12T23:18:29.208Z,17.13
2018-05-12T23:20:57.727Z,17.05
2018-05-12T23:23:26.350Z,16.98
2018-05-12T23:25:54.962Z,16.90
2018-05-12T23:28:23.767Z,16.84
2018-05-12T23:31:10.501Z,17.50
2018-05-12T23:33:39.130Z,16.96
2018-05-12T23:36:07.783Z,16.85
2018-05-12T23:38:36.355Z,16.80
2018-05-12T23:41:07.043Z,17.45
2018-05-12T23:43:38.261Z,16.90
2018-05-12T23:46:06.860Z,16.76
2018-05-12T23:48:35.497Z,16.66
2018-05-12T23:51:04.094Z,16.53
2018-05-12T23:53:32.726Z,16.43
2018-05-12T23:56:01.896Z,16.37
2018-05-12T23:58:30.540Z,17.08
